Time;durP1;ratioP1;P1;durP2;ratioP2;P2;SDS_P1;SDS_P2;PMS_P1;PMS_P2;Temp;Humidity;BMP_temperature;BMP_pressure;BME280_temperature;BME280_humidity;BME280_pressure;Samples;Min_cycle;Max_cycle;Signal;HPM_P1;HPM_P2
2024/01/07 00:01:24;;;;;;;13.10;9.15;;;;;;;;;;4987536;28;20125;-75
2024/01/07 00:03:50;;;;;;;14.50;9.95;;;;;;;;;;4993263;28;20046;-74
2024/01/07 00:06:16;;;;;;;12.82;8.77;;;;;;;;;;4987880;28;20062;-75
2024/01/07 00:08:42;;;;;;;13.05;9.93;;;;;;;;;;5018073;28;20044;-74
2024/01/07 00:11:08;;;;;;;12.63;9.35;;;;;;;;;;4995487;28;20050;-75
2024/01/07 00:13:34;;;;;;;12.10;9.55;;;;;;;;;;4992959;28;20402;-75
2024/01/07 00:16:00;;;;;;;16.70;9.52;;;;;;;;;;4979038;28;20046;-75
2024/01/07 00:18:29;;;;;;;14.15;9.40;;;;;;;;;;4991012;28;20046;-75
2024/01/07 00:20:55;;;;;;;12.68;9.07;;;;;;;;;;4993248;28;20042;-75
2024/01/07 00:23:21;;;;;;;15.20;10.10;;;;;;;;;;4987696;28;20042;-75
2024/01/07 00:25:47;;;;;;;13.65;9.60;;;;;;;;;;4986055;28;20050;-75
2024/01/07 00:28:13;;;;;;;13.63;9.43;;;;;;;;;;4995675;28;20057;-74
2024/01/07 00:30:39;;;;;;;13.88;10.15;;;;;;;;;;4993216;28;20393;-75
2024/01/07 00:33:08;;;;;;;18.02;9.73;;;;;;;;;;4986440;28;20126;-75
2024/01/07 00:35:34;;;;;;;13.75;9.15;;;;;;;;;;4985594;28;20090;-75
2024/01/07 00:38:00;;;;;;;11.55;8.95;;;;;;;;;;4994201;28;20038;-75
2024/01/07 00:40:29;;;;;;;12.77;9.27;;;;;;;;;;4985533;28;20129;-75
2024/01/07 00:42:55;;;;;;;12.27;9.07;;;;;;;;;;4983283;28;20038;-75
2024/01/07 00:45:21;;;;;;;12.65;9.50;;;;;;;;;;4983858;28;20060;-75
2024/01/07 00:47:47;;;;;;;13.15;9.07;;;;;;;;;;4986303;28;20144;-75
2024/01/07 00:50:13;;;;;;;11.75;8.68;;;;;;;;;;4984589;28;20516;-75
2024/01/07 00:52:42;;;;;;;12.38;8.52;;;;;;;;;;4988839;28;20050;-75
2024/01/07 00:55:08;;;;;;;11.43;8.55;;;;;;;;;;4984721;28;20096;-75
2024/01/07 00:57:34;;;;;;;12.15;8.43;;;;;;;;;;4988617;28;20166;-75
2024/01/07 01:00:05;;;;;;;12.20;8.48;;;;;;;;;;4987446;28;20581;-75
2024/01/07 01:02:31;;;;;;;10.82;8.55;;;;;;;;;;4990022;28;20038;-75
2024/01/07 01:04:57;;;;;;;13.52;9.38;;;;;;;;;;4989294;28;20066;-75
2024/01/07 01:07:23;;;;;;;13.38;8.98;;;;;;;;;;4985510;28;20116;-75
2024/01/07 01:09:49;;;;;;;12.88;8.55;;;;;;;;;;4994303;28;20050;-75
2024/01/07 01:12:15;;;;;;;11.10;8.80;;;;;;;;;;4982988;28;20066;-75
2024/01/07 01:14:41;;;;;;;11.25;8.23;;;;;;;;;;4987199;28;20077;-75
2024/01/07 01:17:07;;;;;;;14.30;9.55;;;;;;;;;;4992852;28;20054;-75
2024/01/07 01:19:33;;;;;;;10.93;8.60;;;;;;;;;;4992695;28;20044;-75
2024/01/07 01:21:59;;;;;;;15.43;11.27;;;;;;;;;;4990855;28;20042;-75
2024/01/07 01:24:25;;;;;;;11.07;8.65;;;;;;;;;;4988397;28;20057;-75
2024/01/07 01:26:51;;;;;;;11.05;8.48;;;;;;;;;;4989493;28;20050;-75
2024/01/07 01:29:17;;;;;;;9.82;7.10;;;;;;;;;;4989239;28;20043;-75
2024/01/07 01:31:43;;;;;;;9.65;6.93;;;;;;;;;;5019029;28;20137;-75
2024/01/07 01:34:09;;;;;;;9.40;6.90;;;;;;;;;;4999435;28;20047;-75
2024/01/07 01:36:35;;;;;;;14.88;7.72;;;;;;;;;;5023568;28;20050;-75
2024/01/07 01:39:01;;;;;;;10.77;7.55;;;;;;;;;;4985475;28;20495;-75
2024/01/07 01:41:27;;;;;;;11.20;8.25;;;;;;;;;;4988812;28;20101;-75
2024/01/07 01:43:57;;;;;;;14.27;9.10;;;;;;;;;;4987785;28;20441;-75
2024/01/07 01:46:23;;;;;;;13.77;9.65;;;;;;;;;;4983109;28;20038;-75
2024/01/07 01:48:49;;;;;;;12.60;8.27;;;;;;;;;;4985729;28;20054;-75
2024/01/07 01:51:15;;;;;;;11.98;7.90;;;;;;;;;;5021296;28;20085;-75
2024/01/07 01:53:41;;;;;;;12.55;8.48;;;;;;;;;;4988699;28;20053;-75
2024/01/07 01:56:10;;;;;;;12.00;8.18;;;;;;;;;;4991393;28;20092;-75
2024/01/07 01:58:39;;;;;;;12.40;8.48;;;;;;;;;;4988904;28;20046;-75
2024/01/07 02:01:06;;;;;;;11.10;8.20;;;;;;;;;;4985706;28;20112;-75
2024/01/07 02:03:32;;;;;;;12.77;8.77;;;;;;;;;;4988413;28;20057;-76
2024/01/07 02:05:58;;;;;;;13.43;8.27;;;;;;;;;;4989320;28;20050;-76
2024/01/07 02:08:25;;;;;;;14.00;8.55;;;;;;;;;;4987440;28;20050;-76
2024/01/07 02:10:51;;;;;;;11.95;7.78;;;;;;;;;;4996519;28;20055;-76
2024/01/07 02:13:17;;;;;;;13.10;8.15;;;;;;;;;;4994513;28;20049;-75
2024/01/07 02:15:44;;;;;;;12.27;7.53;;;;;;;;;;5018210;28;20058;-75
2024/01/07 02:18:10;;;;;;;11.90;8.38;;;;;;;;;;4990185;28;20132;-76
2024/01/07 02:20:36;;;;;;;13.02;7.88;;;;;;;;;;5000845;28;20041;-76
2024/01/07 02:23:02;;;;;;;14.98;8.13;;;;;;;;;;4994895;28;20050;-75
2024/01/07 02:25:29;;;;;;;13.68;8.82;;;;;;;;;;4991836;28;20050;-76
2024/01/07 02:27:55;;;;;;;13.18;7.30;;;;;;;;;;4993469;28;20049;-76
2024/01/07 02:30:21;;;;;;;11.18;7.22;;;;;;;;;;4995045;28;20049;-76
2024/01/07 02:32:47;;;;;;;12.18;8.00;;;;;;;;;;4991219;28;20129;-75
2024/01/07 02:35:13;;;;;;;11.95;7.22;;;;;;;;;;4987951;28;20058;-75
2024/01/07 02:37:39;;;;;;;14.07;8.27;;;;;;;;;;4985488;28;20042;-75
2024/01/07 02:40:05;;;;;;;9.38;6.97;;;;;;;;;;4987169;28;20051;-75
2024/01/07 02:42:31;;;;;;;12.70;7.00;;;;;;;;;;4987357;28;20070;-75
2024/01/07 02:44:57;;;;;;;10.63;6.50;;;;;;;;;;4991743;28;20086;-75
2024/01/07 02:47:23;;;;;;;10.70;7.57;;;;;;;;;;4993359;28;20898;-75
2024/01/07 02:49:49;;;;;;;12.00;7.53;;;;;;;;;;4986292;28;20137;-75
2024/01/07 02:52:15;;;;;;;9.32;6.25;;;;;;;;;;4983772;28;20042;-75
2024/01/07 02:54:41;;;;;;;10.48;6.45;;;;;;;;;;4982130;28;20108;-75
2024/01/07 02:57:27;;;;;;;10.40;7.15;;;;;;;;;;4990675;28;20077;-75
2024/01/07 02:59:53;;;;;;;13.40;7.10;;;;;;;;;;4992371;28;20050;-75
2024/01/07 03:02:19;;;;;;;10.77;6.85;;;;;;;;;;4986528;28;20051;-74
2024/01/07 03:04:45;;;;;;;14.38;7.40;;;;;;;;;;4986865;28;20053;-75
2024/01/07 03:07:11;;;;;;;12.13;7.38;;;;;;;;;;4992092;28;20054;-75
2024/01/07 03:09:37;;;;;;;12.35;7.00;;;;;;;;;;4994719;28;20497;-75
2024/01/07 03:12:03;;;;;;;9.13;6.13;;;;;;;;;;4988366;28;20050;-75
2024/01/07 03:14:29;;;;;;;10.55;7.40;;;;;;;;;;4984834;28;20160;-75
2024/01/07 03:16:55;;;;;;;12.25;7.05;;;;;;;;;;4990123;28;20478;-75
2024/01/07 03:19:21;;;;;;;10.27;7.22;;;;;;;;;;4990455;28;20047;-75
2024/01/07 03:21:49;;;;;;;10.93;7.57;;;;;;;;;;5002396;28;20042;-75
2024/01/07 03:24:15;;;;;;;10.88;7.70;;;;;;;;;;4993302;28;20076;-75
2024/01/07 03:26:41;;;;;;;11.02;7.22;;;;;;;;;;5000615;28;20137;-75
2024/01/07 03:29:07;;;;;;;11.52;7.43;;;;;;;;;;4989447;28;20043;-75
2024/01/07 03:31:33;;;;;;;10.02;7.50;;;;;;;;;;4988730;28;20046;-75
2024/01/07 03:33:59;;;;;;;8.77;6.47;;;;;;;;;;4989095;28;20038;-74
2024/01/07 03:36:25;;;;;;;10.85;6.80;;;;;;;;;;4997175;28;20064;-75
2024/01/07 03:38:53;;;;;;;11.00;7.30;;;;;;;;;;5011844;28;20045;-75
2024/01/07 03:41:20;;;;;;;11.70;7.25;;;;;;;;;;5000864;28;20046;-75
2024/01/07 03:43:49;;;;;;;10.30;6.60;;;;;;;;;;5004314;28;20103;-75
2024/01/07 03:46:16;;;;;;;11.02;6.40;;;;;;;;;;5000627;28;20057;-74
2024/01/07 03:48:42;;;;;;;9.60;6.55;;;;;;;;;;4990529;28;20124;-75
2024/01/07 03:51:11;;;;;;;9.63;6.40;;;;;;;;;;4983475;28;20054;-75
2024/01/07 03:53:37;;;;;;;11.10;6.50;;;;;;;;;;4989550;28;20042;-75
2024/01/07 03:56:03;;;;;;;11.15;6.30;;;;;;;;;;4990746;28;20039;-75
2024/01/07 03:58:29;;;;;;;9.48;6.13;;;;;;;;;;4990178;28;20054;-75
2024/01/07 04:00:55;;;;;;;8.98;6.10;;;;;;;;;;4993005;28;20402;-75
2024/01/07 04:03:21;;;;;;;7.82;5.68;;;;;;;;;;4990002;28;20048;-74
2024/01/07 04:05:47;;;;;;;8.65;5.82;;;;;;;;;;4986065;28;20046;-74
2024/01/07 04:08:15;;;;;;;9.93;5.65;;;;;;;;;;4985862;28;22068;-75
2024/01/07 04:10:42;;;;;;;8.90;6.18;;;;;;;;;;4987316;28;20046;-75
2024/01/07 04:13:08;;;;;;;9.85;5.63;;;;;;;;;;5018930;28;20046;-75
2024/01/07 04:15:37;;;;;;;8.55;5.95;;;;;;;;;;4990880;28;20050;-75
2024/01/07 04:18:04;;;;;;;7.68;5.35;;;;;;;;;;4990761;28;20506;-75
2024/01/07 04:20:30;;;;;;;8.43;4.88;;;;;;;;;;4993069;28;20134;-74
2024/01/07 04:22:57;;;;;;;7.65;5.00;;;;;;;;;;4995004;28;20046;-75
2024/01/07 04:25:23;;;;;;;7.70;4.70;;;;;;;;;;4996852;28;20402;-75
2024/01/07 04:27:49;;;;;;;7.88;5.10;;;;;;;;;;4999082;28;20046;-74
2024/01/07 04:30:15;;;;;;;6.20;4.68;;;;;;;;;;4998148;28;20057;-75
2024/01/07 04:32:41;;;;;;;7.13;4.80;;;;;;;;;;5005049;28;20046;-74
2024/01/07 04:35:07;;;;;;;8.32;4.72;;;;;;;;;;4991111;28;20182;-75
2024/01/07 04:37:33;;;;;;;6.03;4.63;;;;;;;;;;4990282;28;20503;-74
2024/01/07 04:40:00;;;;;;;6.68;4.95;;;;;;;;;;4996745;28;20428;-74
2024/01/07 04:42:26;;;;;;;7.43;4.45;;;;;;;;;;5037370;28;20401;-74
2024/01/07 04:44:52;;;;;;;6.65;4.60;;;;;;;;;;5001187;28;20046;-75
2024/01/07 04:47:36;;;;;;;7.93;4.55;;;;;;;;;;4979136;28;20042;-75
2024/01/07 04:50:03;;;;;;;7.65;4.57;;;;;;;;;;4977918;28;20065;-74
2024/01/07 04:52:29;;;;;;;8.50;4.82;;;;;;;;;;4988069;28;20057;-75
2024/01/07 04:54:56;;;;;;;6.28;4.95;;;;;;;;;;4986851;28;20049;-75
2024/01/07 04:57:22;;;;;;;6.90;4.97;;;;;;;;;;4986008;28;20062;-75
2024/01/07 04:59:49;;;;;;;7.07;4.65;;;;;;;;;;4990378;28;20054;-75
2024/01/07 05:02:15;;;;;;;6.30;4.22;;;;;;;;;;4985337;28;20172;-75
2024/01/07 05:04:41;;;;;;;6.93;5.28;;;;;;;;;;4988148;28;20065;-74
2024/01/07 05:07:07;;;;;;;7.25;4.60;;;;;;;;;;4989511;28;20073;-75
2024/01/07 05:09:33;;;;;;;6.20;4.63;;;;;;;;;;4986098;28;20050;-75
2024/01/07 05:11:59;;;;;;;6.20;4.50;;;;;;;;;;4983657;28;20049;-75
2024/01/07 05:14:26;;;;;;;7.82;5.10;;;;;;;;;;5014402;28;20043;-74
2024/01/07 05:16:54;;;;;;;6.07;4.25;;;;;;;;;;4989107;28;20053;-75
2024/01/07 05:19:20;;;;;;;9.50;4.35;;;;;;;;;;4994286;28;20042;-75
2024/01/07 05:21:46;;;;;;;6.75;5.05;;;;;;;;;;4987918;28;21564;-75
2024/01/07 05:24:12;;;;;;;5.50;4.47;;;;;;;;;;4984201;28;20046;-75
2024/01/07 05:26:44;;;;;;;7.07;4.70;;;;;;;;;;5019385;28;20133;-75
2024/01/07 05:29:11;;;;;;;5.20;4.23;;;;;;;;;;4987248;28;20073;-75
2024/01/07 05:31:38;;;;;;;5.18;4.68;;;;;;;;;;4991557;28;20336;-75
2024/01/07 05:34:04;;;;;;;4.75;3.95;;;;;;;;;;4987585;28;20053;-74
2024/01/07 05:36:30;;;;;;;6.10;4.05;;;;;;;;;;4985400;28;20074;-75
2024/01/07 05:38:56;;;;;;;6.20;4.13;;;;;;;;;;4981385;28;20499;-74
2024/01/07 05:41:22;;;;;;;6.43;4.40;;;;;;;;;;4992403;28;20121;-75
2024/01/07 05:43:48;;;;;;;6.72;4.35;;;;;;;;;;4991832;28;20070;-74
2024/01/07 05:46:14;;;;;;;5.35;4.00;;;;;;;;;;4991872;28;20050;-75
2024/01/07 05:48:46;;;;;;;4.68;3.45;;;;;;;;;;4991026;28;20858;-75
2024/01/07 05:51:13;;;;;;;5.40;3.88;;;;;;;;;;4988946;28;20050;-75
2024/01/07 05:53:39;;;;;;;4.22;3.83;;;;;;;;;;4995840;28;20462;-75
2024/01/07 05:56:06;;;;;;;5.93;4.07;;;;;;;;;;4988796;28;20046;-75
2024/01/07 05:58:32;;;;;;;4.90;3.65;;;;;;;;;;4985554;28;20038;-75
2024/01/07 06:00:58;;;;;;;6.53;3.97;;;;;;;;;;4991729;28;20413;-74
2024/01/07 06:03:27;;;;;;;4.72;4.13;;;;;;;;;;4995821;28;20053;-75
2024/01/07 06:05:53;;;;;;;5.13;3.88;;;;;;;;;;4991869;28;20101;-75
2024/01/07 06:08:19;;;;;;;7.90;4.25;;;;;;;;;;4982439;28;20046;-74
2024/01/07 06:10:45;;;;;;;4.20;3.33;;;;;;;;;;4985880;28;20042;-75
2024/01/07 06:13:11;;;;;;;6.70;3.70;;;;;;;;;;4993159;28;20075;-75
2024/01/07 06:15:37;;;;;;;5.03;3.88;;;;;;;;;;4992621;28;20092;-75
2024/01/07 06:18:03;;;;;;;5.65;3.55;;;;;;;;;;4994249;28;20042;-75
2024/01/07 06:20:29;;;;;;;9.85;4.38;;;;;;;;;;4990838;28;20561;-75
2024/01/07 06:22:55;;;;;;;5.20;3.88;;;;;;;;;;4997511;28;20478;-75
2024/01/07 06:25:21;;;;;;;4.78;3.83;;;;;;;;;;4985727;28;20055;-75
2024/01/07 06:27:47;;;;;;;4.93;4.10;;;;;;;;;;4999516;28;20133;-75
2024/01/07 06:30:19;;;;;;;4.00;3.30;;;;;;;;;;5003861;28;20039;-75
2024/01/07 06:32:45;;;;;;;5.40;4.07;;;;;;;;;;4997574;28;20046;-75
2024/01/07 06:35:12;;;;;;;4.07;3.50;;;;;;;;;;4996124;28;20495;-74
2024/01/07 06:37:38;;;;;;;5.97;3.75;;;;;;;;;;5000108;28;20422;-75
2024/01/07 06:40:04;;;;;;;7.20;3.72;;;;;;;;;;5014024;28;20042;-75
2024/01/07 06:42:30;;;;;;;4.18;3.60;;;;;;;;;;5007920;28;20055;-75
2024/01/07 06:44:56;;;;;;;5.55;3.30;;;;;;;;;;4975005;28;20135;-75
2024/01/07 06:47:22;;;;;;;4.00;3.45;;;;;;;;;;5008118;28;20042;-75
2024/01/07 06:49:48;;;;;;;3.55;3.25;;;;;;;;;;5001667;28;20462;-74
2024/01/07 06:52:14;;;;;;;4.32;3.28;;;;;;;;;;4990746;28;20074;-75
2024/01/07 06:54:40;;;;;;;6.88;3.30;;;;;;;;;;4987080;28;20089;-75
2024/01/07 06:57:06;;;;;;;4.68;2.90;;;;;;;;;;4988392;28;20494;-75
2024/01/07 06:59:32;;;;;;;2.97;2.75;;;;;;;;;;4985039;28;20092;-75
2024/01/07 07:01:59;;;;;;;6.18;3.67;;;;;;;;;;4988546;28;20057;-74
2024/01/07 07:04:25;;;;;;;5.53;3.35;;;;;;;;;;4991275;28;20062;-75
2024/01/07 07:06:51;;;;;;;6.50;3.13;;;;;;;;;;4988426;28;20054;-75
2024/01/07 07:09:17;;;;;;;6.05;3.28;;;;;;;;;;4993612;28;20519;-75
2024/01/07 07:11:43;;;;;;;5.18;3.50;;;;;;;;;;4988884;28;20081;-75
2024/01/07 07:14:09;;;;;;;5.45;3.45;;;;;;;;;;4990828;28;20077;-75
2024/01/07 07:16:35;;;;;;;4.53;3.00;;;;;;;;;;4987794;28;20053;-75
2024/01/07 07:19:02;;;;;;;6.10;3.40;;;;;;;;;;4991826;28;20572;-75
2024/01/07 07:21:28;;;;;;;3.45;3.05;;;;;;;;;;4985484;28;20053;-74
2024/01/07 07:23:54;;;;;;;3.45;3.10;;;;;;;;;;4986087;28;20132;-75
2024/01/07 07:26:22;;;;;;;3.75;3.30;;;;;;;;;;4988945;28;20057;-75
2024/01/07 07:28:49;;;;;;;5.72;3.70;;;;;;;;;;5017786;28;20060;-75
2024/01/07 07:31:15;;;;;;;4.85;3.47;;;;;;;;;;4990881;28;20038;-75
2024/01/07 07:33:41;;;;;;;8.15;3.60;;;;;;;;;;4995393;28;20057;-75
2024/01/07 07:36:13;;;;;;;4.35;3.17;;;;;;;;;;4995153;28;20136;-75
2024/01/07 07:38:39;;;;;;;3.53;3.23;;;;;;;;;;4987979;28;20046;-75
2024/01/07 07:41:05;;;;;;;5.53;3.75;;;;;;;;;;4994223;28;20042;-75
2024/01/07 07:43:31;;;;;;;5.13;3.47;;;;;;;;;;4984282;28;20046;-75
2024/01/07 07:45:57;;;;;;;5.43;3.80;;;;;;;;;;5022347;28;20120;-75
2024/01/07 07:48:24;;;;;;;5.25;3.70;;;;;;;;;;4987950;28;20074;-75
2024/01/07 07:50:50;;;;;;;4.72;3.50;;;;;;;;;;4990235;28;20054;-75
2024/01/07 07:53:16;;;;;;;4.43;3.40;;;;;;;;;;4989981;28;20046;-75
2024/01/07 07:55:43;;;;;;;5.93;3.60;;;;;;;;;;4987680;28;20101;-75
2024/01/07 07:58:09;;;;;;;6.55;3.92;;;;;;;;;;4986375;28;20418;-75
2024/01/07 08:00:35;;;;;;;5.75;3.58;;;;;;;;;;4982468;28;20042;-75
2024/01/07 08:03:01;;;;;;;5.22;3.50;;;;;;;;;;4989883;28;20147;-74
2024/01/07 08:05:27;;;;;;;6.20;3.70;;;;;;;;;;4983368;28;20057;-74
2024/01/07 08:07:53;;;;;;;5.07;3.50;;;;;;;;;;4988666;28;20112;-74
2024/01/07 08:10:21;;;;;;;4.18;3.50;;;;;;;;;;4981368;28;20050;-74
2024/01/07 08:12:47;;;;;;;5.43;4.35;;;;;;;;;;4990004;28;20055;-74
2024/01/07 08:15:13;;;;;;;5.55;3.95;;;;;;;;;;4990251;28;20035;-75
2024/01/07 08:17:39;;;;;;;5.50;4.03;;;;;;;;;;4986991;28;20489;-74
2024/01/07 08:20:05;;;;;;;5.15;4.15;;;;;;;;;;5023579;28;20058;-74
2024/01/07 08:22:31;;;;;;;6.28;4.10;;;;;;;;;;4995011;28;20062;-74
2024/01/07 08:24:57;;;;;;;5.35;3.47;;;;;;;;;;4989547;28;20157;-75
2024/01/07 08:27:23;;;;;;;5.78;4.22;;;;;;;;;;5004582;28;20057;-74
2024/01/07 08:29:49;;;;;;;5.15;4.20;;;;;;;;;;4994647;28;20046;-74
2024/01/07 08:32:15;;;;;;;7.00;4.20;;;;;;;;;;4983606;28;20046;-75
2024/01/07 08:34:44;;;;;;;5.05;4.15;;;;;;;;;;4992794;28;20058;-74
2024/01/07 08:37:10;;;;;;;5.35;3.75;;;;;;;;;;4994556;28;20048;-74
2024/01/07 08:39:36;;;;;;;6.90;4.07;;;;;;;;;;4999448;28;20052;-74
2024/01/07 08:42:03;;;;;;;5.43;4.43;;;;;;;;;;4982157;28;20042;-74
2024/01/07 08:44:29;;;;;;;5.03;4.47;;;;;;;;;;4991059;28;20132;-74
2024/01/07 08:46:55;;;;;;;5.35;4.20;;;;;;;;;;4991078;28;20085;-74
2024/01/07 08:49:21;;;;;;;6.05;4.57;;;;;;;;;;4973852;28;20051;-75
2024/01/07 08:51:47;;;;;;;6.65;4.20;;;;;;;;;;4975064;28;20061;-74
2024/01/07 08:54:13;;;;;;;6.90;4.30;;;;;;;;;;4984118;28;20038;-75
2024/01/07 08:56:39;;;;;;;4.07;3.65;;;;;;;;;;4985521;28;20510;-75
2024/01/07 08:59:05;;;;;;;6.97;4.75;;;;;;;;;;5019996;28;20050;-73
2024/01/07 09:01:31;;;;;;;7.13;4.30;;;;;;;;;;4979728;28;20060;-73
2024/01/07 09:03:57;;;;;;;12.15;4.82;;;;;;;;;;4975525;28;20042;-73
2024/01/07 09:06:24;;;;;;;8.35;5.03;;;;;;;;;;4992083;28;20054;-73
2024/01/07 09:08:50;;;;;;;5.38;4.55;;;;;;;;;;4989775;28;20062;-74
2024/01/07 09:11:19;;;;;;;5.50;4.25;;;;;;;;;;4992919;28;20048;-73
2024/01/07 09:13:48;;;;;;;5.82;4.35;;;;;;;;;;5023256;28;20097;-74
2024/01/07 09:16:14;;;;;;;5.60;4.53;;;;;;;;;;4998144;28;20053;-73
2024/01/07 09:18:40;;;;;;;7.72;4.32;;;;;;;;;;4973370;28;20399;-74
2024/01/07 09:21:06;;;;;;;6.03;4.72;;;;;;;;;;4984234;28;20057;-74
2024/01/07 09:23:33;;;;;;;8.88;4.85;;;;;;;;;;4995618;28;20045;-74
2024/01/07 09:25:59;;;;;;;5.22;4.20;;;;;;;;;;4986739;28;20064;-73
2024/01/07 09:28:25;;;;;;;7.50;4.45;;;;;;;;;;5020666;28;20121;-71
2024/01/07 09:30:55;;;;;;;6.18;4.90;;;;;;;;;;4982789;28;20054;-77
2024/01/07 09:33:23;;;;;;;8.07;4.78;;;;;;;;;;4985670;28;20132;-77
2024/01/07 09:35:54;;;;;;;4.57;4.10;;;;;;;;;;4984520;28;20264;-77
2024/01/07 09:38:20;;;;;;;4.32;3.92;;;;;;;;;;4985537;28;20051;-76
2024/01/07 09:40:46;;;;;;;4.90;4.20;;;;;;;;;;4987270;28;20383;-76
2024/01/07 09:43:12;;;;;;;5.22;4.15;;;;;;;;;;4987002;28;20042;-77
2024/01/07 09:45:42;;;;;;;5.47;4.50;;;;;;;;;;4983230;28;20050;-76
2024/01/07 09:48:08;;;;;;;5.85;4.38;;;;;;;;;;5017425;28;20055;-76
2024/01/07 09:50:34;;;;;;;5.40;4.32;;;;;;;;;;4985588;28;20383;-76
2024/01/07 09:53:02;;;;;;;6.75;4.00;;;;;;;;;;4993804;28;20054;-74
2024/01/07 09:55:33;;;;;;;6.60;4.63;;;;;;;;;;4992902;28;20507;-79
2024/01/07 09:57:59;;;;;;;6.60;4.45;;;;;;;;;;5017619;28;20474;-79
2024/01/07 10:00:28;;;;;;;4.85;4.32;;;;;;;;;;4980678;28;20054;-78
2024/01/07 10:02:54;;;;;;;6.50;4.28;;;;;;;;;;4984922;28;20042;-78
2024/01/07 10:05:21;;;;;;;5.03;4.13;;;;;;;;;;4977219;28;20073;-78
2024/01/07 10:07:47;;;;;;;6.75;4.43;;;;;;;;;;4990149;28;20049;-78
2024/01/07 10:10:17;;;;;;;5.30;4.80;;;;;;;;;;4984503;28;20050;-78
2024/01/07 10:12:47;;;;;;;9.35;5.00;;;;;;;;;;4983309;28;20038;-77
2024/01/07 10:15:14;;;;;;;6.97;4.28;;;;;;;;;;4987255;28;20046;-78
2024/01/07 10:17:46;;;;;;;5.20;4.38;;;;;;;;;;4989176;28;20057;-78
2024/01/07 10:20:13;;;;;;;6.82;4.18;;;;;;;;;;5017707;28;20140;-78
2024/01/07 10:22:39;;;;;;;5.13;4.40;;;;;;;;;;4981255;28;20054;-78
2024/01/07 10:25:06;;;;;;;5.15;4.18;;;;;;;;;;4990010;28;20417;-78
2024/01/07 10:27:35;;;;;;;4.80;4.32;;;;;;;;;;4987210;28;20089;-78
2024/01/07 10:30:02;;;;;;;7.30;4.80;;;;;;;;;;4986899;28;20049;-78
2024/01/07 10:32:29;;;;;;;6.20;4.40;;;;;;;;;;4989505;28;20066;-78
2024/01/07 10:34:58;;;;;;;5.25;3.83;;;;;;;;;;4990729;28;20047;-78
2024/01/07 10:37:24;;;;;;;7.35;3.95;;;;;;;;;;4987883;28;20042;-78
2024/01/07 10:39:50;;;;;;;4.78;4.28;;;;;;;;;;4988297;28;20145;-78
2024/01/07 10:42:18;;;;;;;4.50;3.55;;;;;;;;;;4984459;28;20043;-80
2024/01/07 10:44:44;;;;;;;6.68;3.95;;;;;;;;;;4986259;28;20513;-80
2024/01/07 10:47:11;;;;;;;5.10;3.50;;;;;;;;;;4987011;28;20046;-80
2024/01/07 10:49:37;;;;;;;4.40;4.00;;;;;;;;;;4990059;28;20046;-77
2024/01/07 10:52:04;;;;;;;4.57;4.05;;;;;;;;;;4987017;28;20386;-78
2024/01/07 10:54:31;;;;;;;4.28;3.88;;;;;;;;;;4989788;28;20057;-78
2024/01/07 10:57:02;;;;;;;4.55;3.60;;;;;;;;;;4992531;28;20046;-78
2024/01/07 10:59:29;;;;;;;4.30;3.83;;;;;;;;;;4990087;28;20050;-77
2024/01/07 11:01:56;;;;;;;5.03;3.80;;;;;;;;;;4987311;28;20120;-78
2024/01/07 11:04:31;;;;;;;6.75;4.22;;;;;;;;;;4991181;28;20043;-78
2024/01/07 11:07:20;;;;;;;4.53;3.92;;;;;;;;;;4990787;28;20065;-78
2024/01/07 11:09:53;;;;;;;6.15;4.03;;;;;;;;;;4985785;28;20050;-77
2024/01/07 11:12:19;;;;;;;4.43;3.60;;;;;;;;;;4990280;28;20087;-78
2024/01/07 11:14:51;;;;;;;5.72;4.10;;;;;;;;;;4991464;28;20049;-77
2024/01/07 11:17:32;;;;;;;5.75;5.05;;;;;;;;;;5021595;28;20045;-78
2024/01/07 11:20:02;;;;;;;5.00;4.18;;;;;;;;;;4989612;28;20046;-78
2024/01/07 11:22:28;;;;;;;5.13;4.00;;;;;;;;;;4986368;28;20139;-78
2024/01/07 11:24:58;;;;;;;5.93;4.45;;;;;;;;;;4988387;28;20128;-78
2024/01/07 11:27:25;;;;;;;5.82;3.72;;;;;;;;;;4983987;28;20399;-77
2024/01/07 11:30:17;;;;;;;4.70;4.10;;;;;;;;;;4990776;28;20050;-78
2024/01/07 11:32:46;;;;;;;7.38;4.40;;;;;;;;;;4989443;28;20054;-78
2024/01/07 11:35:15;;;;;;;4.57;3.88;;;;;;;;;;4988400;28;20486;-78
2024/01/07 11:37:41;;;;;;;6.05;4.45;;;;;;;;;;4989794;28;20121;-80
2024/01/07 11:40:08;;;;;;;5.15;4.22;;;;;;;;;;4988046;28;20146;-78
2024/01/07 11:42:34;;;;;;;6.20;4.28;;;;;;;;;;4992554;28;20073;-78
2024/01/07 11:45:00;;;;;;;7.32;4.13;;;;;;;;;;4987061;28;20046;-78
2024/01/07 11:47:27;;;;;;;5.63;4.03;;;;;;;;;;4988256;28;20054;-77
2024/01/07 11:49:54;;;;;;;7.28;4.30;;;;;;;;;;4988948;28;20054;-78
2024/01/07 11:52:20;;;;;;;10.10;4.43;;;;;;;;;;4981977;28;20062;-78
2024/01/07 11:54:47;;;;;;;7.15;4.50;;;;;;;;;;4988474;28;20069;-78
2024/01/07 11:57:13;;;;;;;5.03;4.38;;;;;;;;;;4985323;28;20561;-78
2024/01/07 11:59:39;;;;;;;6.75;4.15;;;;;;;;;;4986802;28;20113;-77
2024/01/07 12:02:05;;;;;;;5.75;3.80;;;;;;;;;;4979239;28;20415;-78
2024/01/07 12:04:32;;;;;;;5.97;4.25;;;;;;;;;;4981609;28;20050;-77
2024/01/07 12:06:58;;;;;;;6.55;4.80;;;;;;;;;;4982436;28;20061;-77
2024/01/07 12:09:25;;;;;;;5.13;4.13;;;;;;;;;;4984326;28;20101;-77
2024/01/07 12:11:51;;;;;;;5.45;4.28;;;;;;;;;;4980911;28;20081;-77
2024/01/07 12:14:17;;;;;;;5.03;4.47;;;;;;;;;;4977668;28;20482;-77
2024/01/07 12:16:47;;;;;;;6.88;4.60;;;;;;;;;;4984211;28;20038;-77
2024/01/07 12:19:13;;;;;;;8.00;4.30;;;;;;;;;;4978722;28;20557;-77
2024/01/07 12:21:40;;;;;;;8.23;4.75;;;;;;;;;;4979778;28;20070;-76
2024/01/07 12:24:06;;;;;;;9.50;4.40;;;;;;;;;;4980557;28;20046;-77
2024/01/07 12:26:33;;;;;;;5.80;4.60;;;;;;;;;;4981433;28;20434;-77
2024/01/07 12:29:03;;;;;;;6.22;4.40;;;;;;;;;;4986373;28;20124;-78
2024/01/07 12:31:29;;;;;;;6.78;4.63;;;;;;;;;;4986880;28;20054;-77
2024/01/07 12:33:56;;;;;;;5.18;4.30;;;;;;;;;;4985540;28;20038;-76
2024/01/07 12:36:23;;;;;;;7.45;4.50;;;;;;;;;;4988106;28;20050;-76
2024/01/07 12:38:49;;;;;;;6.72;4.40;;;;;;;;;;4983975;28;20649;-73
2024/01/07 12:41:15;;;;;;;5.20;4.18;;;;;;;;;;4988992;28;20046;-73
2024/01/07 12:43:41;;;;;;;6.30;4.60;;;;;;;;;;4991627;28;20117;-74
2024/01/07 12:46:07;;;;;;;8.27;4.00;;;;;;;;;;4994602;28;20596;-74
2024/01/07 12:48:36;;;;;;;5.38;4.40;;;;;;;;;;4995921;28;20143;-74
2024/01/07 12:51:03;;;;;;;7.80;4.72;;;;;;;;;;4989724;28;20089;-74
2024/01/07 12:53:29;;;;;;;5.45;4.35;;;;;;;;;;4984074;28;20050;-74
2024/01/07 12:55:55;;;;;;;8.15;4.57;;;;;;;;;;5014554;28;20045;-74
2024/01/07 12:58:21;;;;;;;7.15;4.32;;;;;;;;;;4988118;28;20045;-74
2024/01/07 13:00:47;;;;;;;5.32;4.10;;;;;;;;;;4983023;28;20483;-74
2024/01/07 13:03:17;;;;;;;7.07;4.43;;;;;;;;;;4988703;28;20383;-74
2024/01/07 13:05:44;;;;;;;5.90;4.40;;;;;;;;;;4987965;28;20065;-74
2024/01/07 13:08:10;;;;;;;7.95;4.53;;;;;;;;;;4982664;28;20392;-74
2024/01/07 13:10:37;;;;;;;5.47;4.25;;;;;;;;;;4987439;28;20118;-74
2024/01/07 13:13:03;;;;;;;5.22;4.03;;;;;;;;;;4989853;28;20509;-74
2024/01/07 13:15:29;;;;;;;5.20;4.03;;;;;;;;;;4987459;28;20495;-74
2024/01/07 13:17:55;;;;;;;6.60;4.45;;;;;;;;;;4986528;28;20121;-74
2024/01/07 13:20:22;;;;;;;9.43;3.85;;;;;;;;;;5018156;28;20137;-74
2024/01/07 13:22:48;;;;;;;4.65;4.13;;;;;;;;;;5015869;28;20502;-74
2024/01/07 13:25:14;;;;;;;5.50;3.85;;;;;;;;;;4987146;28;20042;-74
2024/01/07 13:27:42;;;;;;;6.50;4.00;;;;;;;;;;4983756;28;20039;-74
2024/01/07 13:30:09;;;;;;;6.38;4.05;;;;;;;;;;4984037;28;20054;-74
2024/01/07 13:32:36;;;;;;;7.47;4.43;;;;;;;;;;4984579;28;20047;-74
2024/01/07 13:35:12;;;;;;;5.93;3.67;;;;;;;;;;4986802;28;20065;-74
2024/01/07 13:37:41;;;;;;;8.05;4.13;;;;;;;;;;4986653;28;20082;-74
2024/01/07 13:40:10;;;;;;;5.80;4.13;;;;;;;;;;4985588;28;20137;-74
2024/01/07 13:42:36;;;;;;;5.07;3.80;;;;;;;;;;5017074;28;20047;-74
2024/01/07 13:45:02;;;;;;;5.25;3.85;;;;;;;;;;4982690;28;20088;-74
2024/01/07 13:47:28;;;;;;;4.85;4.10;;;;;;;;;;4981847;28;20578;-75
2024/01/07 13:49:54;;;;;;;5.75;3.80;;;;;;;;;;4986462;28;20523;-75
2024/01/07 13:52:20;;;;;;;5.40;3.70;;;;;;;;;;4985486;28;20074;-75
2024/01/07 13:54:47;;;;;;;5.38;3.20;;;;;;;;;;4976570;28;20078;-75
2024/01/07 13:57:13;;;;;;;6.60;3.85;;;;;;;;;;5005511;28;20054;-75
2024/01/07 13:59:39;;;;;;;4.90;3.40;;;;;;;;;;4989936;28;20100;-75
2024/01/07 14:02:07;;;;;;;6.43;3.88;;;;;;;;;;4993317;28;20446;-74
2024/01/07 14:04:33;;;;;;;4.82;3.58;;;;;;;;;;4987222;28;20099;-74
2024/01/07 14:06:59;;;;;;;5.78;3.38;;;;;;;;;;4990864;28;20059;-74
2024/01/07 14:09:25;;;;;;;6.07;3.90;;;;;;;;;;5017030;28;20058;-74
2024/01/07 14:11:52;;;;;;;5.50;3.85;;;;;;;;;;5016342;28;20046;-75
2024/01/07 14:14:19;;;;;;;5.03;3.85;;;;;;;;;;4990693;28;20486;-74
2024/01/07 14:16:45;;;;;;;6.65;4.50;;;;;;;;;;4995153;28;20050;-73
2024/01/07 14:19:11;;;;;;;4.60;3.90;;;;;;;;;;4989126;28;20573;-73
2024/01/07 14:21:37;;;;;;;6.57;4.07;;;;;;;;;;4994398;28;20043;-73
2024/01/07 14:24:03;;;;;;;5.07;3.60;;;;;;;;;;4993725;28;20042;-74
2024/01/07 14:26:29;;;;;;;4.72;3.60;;;;;;;;;;4994710;28;20034;-73
2024/01/07 14:28:55;;;;;;;8.88;4.22;;;;;;;;;;4997664;28;20046;-74
2024/01/07 14:31:21;;;;;;;9.32;3.90;;;;;;;;;;5007080;28;20044;-74
2024/01/07 14:33:47;;;;;;;6.22;3.95;;;;;;;;;;4991083;28;20486;-74
2024/01/07 14:36:16;;;;;;;7.70;4.50;;;;;;;;;;4994558;28;20072;-74
2024/01/07 14:38:48;;;;;;;8.93;4.53;;;;;;;;;;4997203;28;20046;-75